Addicks, Texas
Current Conditions -  °F | °C
As of 7:53 AM on Thursday 23 Oct 2014 (Local Time) from KSGR Reporting Station
Clear Clear  
Wind Chill: 63°   Ceiling: Unl
Heat Index: 63°   Visibility: 10mi
Dew Point: 57°   Wind: 5mph
Humidity: 81%   Direction: 360°N
Pressure: 30.1"   Gusts: NA
Location:  29.7757°N, 95.6037°W
Report Text: KSGR 231253Z 36004KT 10SM CLR 17/14 A3010 RMK AO2 SLP193 T01720139
Loading
Personal Weather Stations






























Interactive Weather Map New forecast layout! Learn more

10-Day Weather Forecast

Advertisements
Track Severe Weather on mobile